sensor_id;sensor_type;location;lat;lon;timestamp;temperature;humidity
22418;DHT22;11376;50.932;4.442;2023-08-06T00:00:22;15.00;99.90
22418;DHT22;11376;50.932;4.442;2023-08-06T00:02:48;15.00;99.90
22418;DHT22;11376;50.932;4.442;2023-08-06T00:05:14;15.00;99.90
22418;DHT22;11376;50.932;4.442;2023-08-06T00:07:44;15.10;99.90
22418;DHT22;11376;50.932;4.442;2023-08-06T00:10:10;15.10;99.90
22418;DHT22;11376;50.932;4.442;2023-08-06T00:12:36;15.00;99.90
22418;DHT22;11376;50.932;4.442;2023-08-06T00:15:02;15.00;99.90
22418;DHT22;11376;50.932;4.442;2023-08-06T00:17:27;15.00;99.90
22418;DHT22;11376;50.932;4.442;2023-08-06T00:19:53;15.10;99.90
22418;DHT22;11376;50.932;4.442;2023-08-06T00:22:19;15.20;99.90
22418;DHT22;11376;50.932;4.442;2023-08-06T00:24:44;15.10;99.90
22418;DHT22;11376;50.932;4.442;2023-08-06T00:27:10;15.20;99.90
22418;DHT22;11376;50.932;4.442;2023-08-06T00:29:36;15.20;99.90
22418;DHT22;11376;50.932;4.442;2023-08-06T00:32:02;15.20;99.90
22418;DHT22;11376;50.932;4.442;2023-08-06T00:34:27;15.20;99.90
22418;DHT22;11376;50.932;4.442;2023-08-06T00:36:53;15.20;99.90
22418;DHT22;11376;50.932;4.442;2023-08-06T00:39:19;15.20;99.90
22418;DHT22;11376;50.932;4.442;2023-08-06T00:41:45;15.30;99.90
22418;DHT22;11376;50.932;4.442;2023-08-06T00:44:11;15.30;99.90
22418;DHT22;11376;50.932;4.442;2023-08-06T00:46:36;15.20;99.90
22418;DHT22;11376;50.932;4.442;2023-08-06T00:49:03;15.30;99.90
22418;DHT22;11376;50.932;4.442;2023-08-06T00:51:29;15.20;99.90
22418;DHT22;11376;50.932;4.442;2023-08-06T00:53:56;15.30;99.90
22418;DHT22;11376;50.932;4.442;2023-08-06T00:56:21;15.20;99.90
22418;DHT22;11376;50.932;4.442;2023-08-06T00:58:47;15.30;99.90
22418;DHT22;11376;50.932;4.442;2023-08-06T01:01:13;15.30;99.90
22418;DHT22;11376;50.932;4.442;2023-08-06T01:03:39;15.30;99.90
22418;DHT22;11376;50.932;4.442;2023-08-06T01:06:05;15.30;99.90
22418;DHT22;11376;50.932;4.442;2023-08-06T01:08:54;15.30;99.90
22418;DHT22;11376;50.932;4.442;2023-08-06T01:14:06;15.30;99.90
22418;DHT22;11376;50.932;4.442;2023-08-06T01:16:33;15.30;99.90
22418;DHT22;11376;50.932;4.442;2023-08-06T01:19:00;15.30;99.90
22418;DHT22;11376;50.932;4.442;2023-08-06T01:21:25;15.30;99.90
22418;DHT22;11376;50.932;4.442;2023-08-06T01:23:51;15.20;99.90
22418;DHT22;11376;50.932;4.442;2023-08-06T01:29:23;15.20;99.90
22418;DHT22;11376;50.932;4.442;2023-08-06T01:31:51;15.20;99.90
22418;DHT22;11376;50.932;4.442;2023-08-06T01:34:22;15.20;99.90
22418;DHT22;11376;50.932;4.442;2023-08-06T01:36:47;15.20;99.90
22418;DHT22;11376;50.932;4.442;2023-08-06T01:39:13;15.10;99.90
22418;DHT22;11376;50.932;4.442;2023-08-06T01:41:39;15.10;99.90
22418;DHT22;11376;50.932;4.442;2023-08-06T01:44:05;15.10;99.90
22418;DHT22;11376;50.932;4.442;2023-08-06T01:46:30;15.10;99.90
22418;DHT22;11376;50.932;4.442;2023-08-06T01:48:56;15.10;99.90
22418;DHT22;11376;50.932;4.442;2023-08-06T01:51:22;15.10;99.90
22418;DHT22;11376;50.932;4.442;2023-08-06T01:53:48;15.20;99.90
22418;DHT22;11376;50.932;4.442;2023-08-06T01:56:13;15.10;99.90
22418;DHT22;11376;50.932;4.442;2023-08-06T01:58:39;15.20;99.90
22418;DHT22;11376;50.932;4.442;2023-08-06T02:01:05;15.20;99.90
22418;DHT22;11376;50.932;4.442;2023-08-06T02:03:30;15.20;99.90
22418;DHT22;11376;50.932;4.442;2023-08-06T02:05:56;15.20;99.90
22418;DHT22;11376;50.932;4.442;2023-08-06T02:08:22;15.20;99.90
22418;DHT22;11376;50.932;4.442;2023-08-06T02:10:48;15.20;99.90
22418;DHT22;11376;50.932;4.442;2023-08-06T02:13:14;15.10;99.90
22418;DHT22;11376;50.932;4.442;2023-08-06T02:15:43;15.10;99.90
22418;DHT22;11376;50.932;4.442;2023-08-06T02:18:09;15.00;99.90
22418;DHT22;11376;50.932;4.442;2023-08-06T02:20:35;15.00;99.90
22418;DHT22;11376;50.932;4.442;2023-08-06T02:23:01;15.00;99.90
22418;DHT22;11376;50.932;4.442;2023-08-06T02:25:26;14.90;99.90
22418;DHT22;11376;50.932;4.442;2023-08-06T02:27:52;14.90;99.90
22418;DHT22;11376;50.932;4.442;2023-08-06T02:30:18;14.90;99.90
22418;DHT22;11376;50.932;4.442;2023-08-06T02:32:44;14.90;99.90
22418;DHT22;11376;50.932;4.442;2023-08-06T02:35:09;14.90;99.90
22418;DHT22;11376;50.932;4.442;2023-08-06T02:37:35;14.90;99.90
22418;DHT22;11376;50.932;4.442;2023-08-06T02:40:01;14.90;99.90
22418;DHT22;11376;50.932;4.442;2023-08-06T02:42:27;14.90;99.90
22418;DHT22;11376;50.932;4.442;2023-08-06T02:44:53;14.90;99.90
22418;DHT22;11376;50.932;4.442;2023-08-06T02:47:22;15.00;99.90
22418;DHT22;11376;50.932;4.442;2023-08-06T02:49:48;15.00;99.90
22418;DHT22;11376;50.932;4.442;2023-08-06T02:52:14;15.10;99.90
22418;DHT22;11376;50.932;4.442;2023-08-06T02:54:39;15.10;99.90
22418;DHT22;11376;50.932;4.442;2023-08-06T02:57:06;15.10;99.90
22418;DHT22;11376;50.932;4.442;2023-08-06T02:59:32;15.10;99.90
22418;DHT22;11376;50.932;4.442;2023-08-06T03:01:58;15.00;99.90
22418;DHT22;11376;50.932;4.442;2023-08-06T03:04:23;15.20;99.90
22418;DHT22;11376;50.932;4.442;2023-08-06T03:06:52;15.30;99.90
22418;DHT22;11376;50.932;4.442;2023-08-06T03:09:18;15.30;99.90
22418;DHT22;11376;50.932;4.442;2023-08-06T03:11:44;15.30;99.90
22418;DHT22;11376;50.932;4.442;2023-08-06T03:14:09;15.40;99.90
22418;DHT22;11376;50.932;4.442;2023-08-06T03:16:35;15.40;99.90
22418;DHT22;11376;50.932;4.442;2023-08-06T03:19:01;15.50;99.90
22418;DHT22;11376;50.932;4.442;2023-08-06T03:21:27;15.50;99.90
22418;DHT22;11376;50.932;4.442;2023-08-06T03:23:52;15.40;99.90
22418;DHT22;11376;50.932;4.442;2023-08-06T03:26:18;15.50;99.90
22418;DHT22;11376;50.932;4.442;2023-08-06T03:28:44;15.40;99.90
22418;DHT22;11376;50.932;4.442;2023-08-06T03:31:10;15.50;99.90
22418;DHT22;11376;50.932;4.442;2023-08-06T03:33:35;15.40;99.90
22418;DHT22;11376;50.932;4.442;2023-08-06T03:36:01;15.50;99.90
22418;DHT22;11376;50.932;4.442;2023-08-06T03:38:27;15.50;99.90
22418;DHT22;11376;50.932;4.442;2023-08-06T03:40:53;15.50;99.90
22418;DHT22;11376;50.932;4.442;2023-08-06T03:43:19;15.40;99.90
22418;DHT22;11376;50.932;4.442;2023-08-06T03:45:45;15.50;99.90
22418;DHT22;11376;50.932;4.442;2023-08-06T03:48:11;15.50;99.90
22418;DHT22;11376;50.932;4.442;2023-08-06T03:50:36;15.50;99.90
22418;DHT22;11376;50.932;4.442;2023-08-06T03:53:03;15.40;99.90
22418;DHT22;11376;50.932;4.442;2023-08-06T03:55:29;15.50;99.90
22418;DHT22;11376;50.932;4.442;2023-08-06T03:57:55;15.50;99.90
22418;DHT22;11376;50.932;4.442;2023-08-06T04:00:20;15.40;99.90
22418;DHT22;11376;50.932;4.442;2023-08-06T04:02:46;15.40;99.90
22418;DHT22;11376;50.932;4.442;2023-08-06T04:05:13;15.40;99.90
22418;DHT22;11376;50.932;4.442;2023-08-06T04:07:39;15.40;99.90
22418;DHT22;11376;50.932;4.442;2023-08-06T04:10:05;15.40;99.90
22418;DHT22;11376;50.932;4.442;2023-08-06T04:12:31;15.40;99.90
22418;DHT22;11376;50.932;4.442;2023-08-06T04:14:58;15.40;99.90
22418;DHT22;11376;50.932;4.442;2023-08-06T04:17:27;15.30;99.90
22418;DHT22;11376;50.932;4.442;2023-08-06T04:19:54;15.20;99.90
22418;DHT22;11376;50.932;4.442;2023-08-06T04:22:21;15.10;99.90
22418;DHT22;11376;50.932;4.442;2023-08-06T04:24:47;15.10;99.90
22418;DHT22;11376;50.932;4.442;2023-08-06T04:27:14;15.00;99.90
22418;DHT22;11376;50.932;4.442;2023-08-06T04:29:40;14.90;99.90
22418;DHT22;11376;50.932;4.442;2023-08-06T04:32:08;14.90;99.90
22418;DHT22;11376;50.932;4.442;2023-08-06T04:34:34;14.80;99.90
22418;DHT22;11376;50.932;4.442;2023-08-06T04:37:01;14.70;99.90
22418;DHT22;11376;50.932;4.442;2023-08-06T04:39:27;14.60;99.90
22418;DHT22;11376;50.932;4.442;2023-08-06T04:41:53;14.60;99.90
22418;DHT22;11376;50.932;4.442;2023-08-06T04:44:20;14.50;99.90
22418;DHT22;11376;50.932;4.442;2023-08-06T04:46:46;14.40;99.90
22418;DHT22;11376;50.932;4.442;2023-08-06T04:49:11;14.20;99.90
22418;DHT22;11376;50.932;4.442;2023-08-06T04:51:37;14.20;99.90
22418;DHT22;11376;50.932;4.442;2023-08-06T04:54:04;14.20;99.90
22418;DHT22;11376;50.932;4.442;2023-08-06T04:56:29;14.00;99.90
22418;DHT22;11376;50.932;4.442;2023-08-06T04:58:55;14.10;99.90
22418;DHT22;11376;50.932;4.442;2023-08-06T05:01:21;14.10;99.90
22418;DHT22;11376;50.932;4.442;2023-08-06T05:03:47;14.00;99.90
22418;DHT22;11376;50.932;4.442;2023-08-06T05:06:13;14.00;99.90
22418;DHT22;11376;50.932;4.442;2023-08-06T05:08:39;14.10;99.90
22418;DHT22;11376;50.932;4.442;2023-08-06T05:11:04;14.10;99.90
22418;DHT22;11376;50.932;4.442;2023-08-06T05:13:30;14.10;99.90
22418;DHT22;11376;50.932;4.442;2023-08-06T05:15:56;14.10;99.90
22418;DHT22;11376;50.932;4.442;2023-08-06T05:18:22;14.10;99.90
22418;DHT22;11376;50.932;4.442;2023-08-06T05:20:48;14.10;99.90
22418;DHT22;11376;50.932;4.442;2023-08-06T05:23:14;14.10;99.90
22418;DHT22;11376;50.932;4.442;2023-08-06T05:25:40;14.20;99.90
22418;DHT22;11376;50.932;4.442;2023-08-06T05:28:06;14.20;99.90
22418;DHT22;11376;50.932;4.442;2023-08-06T05:30:32;14.20;99.90
22418;DHT22;11376;50.932;4.442;2023-08-06T05:32:58;14.20;99.90
22418;DHT22;11376;50.932;4.442;2023-08-06T05:35:23;14.30;99.90
22418;DHT22;11376;50.932;4.442;2023-08-06T05:37:53;14.30;99.90
22418;DHT22;11376;50.932;4.442;2023-08-06T05:40:21;14.30;99.90
22418;DHT22;11376;50.932;4.442;2023-08-06T05:42:47;14.30;99.90
22418;DHT22;11376;50.932;4.442;2023-08-06T05:45:12;14.30;99.90
22418;DHT22;11376;50.932;4.442;2023-08-06T05:47:38;14.30;99.90
22418;DHT22;11376;50.932;4.442;2023-08-06T05:50:04;14.40;99.90
22418;DHT22;11376;50.932;4.442;2023-08-06T05:52:30;14.30;99.90
22418;DHT22;11376;50.932;4.442;2023-08-06T05:54:56;14.30;99.90
22418;DHT22;11376;50.932;4.442;2023-08-06T05:57:22;14.40;99.90
22418;DHT22;11376;50.932;4.442;2023-08-06T05:59:48;14.40;99.90
22418;DHT22;11376;50.932;4.442;2023-08-06T06:02:13;14.50;99.90
22418;DHT22;11376;50.932;4.442;2023-08-06T06:04:40;14.40;99.90
22418;DHT22;11376;50.932;4.442;2023-08-06T06:07:06;14.30;99.90
22418;DHT22;11376;50.932;4.442;2023-08-06T06:09:32;14.40;99.90
22418;DHT22;11376;50.932;4.442;2023-08-06T06:11:58;14.30;99.90
22418;DHT22;11376;50.932;4.442;2023-08-06T06:14:23;14.40;99.90
22418;DHT22;11376;50.932;4.442;2023-08-06T06:16:49;14.30;99.90
22418;DHT22;11376;50.932;4.442;2023-08-06T06:19:15;14.40;99.90
22418;DHT22;11376;50.932;4.442;2023-08-06T06:21:41;14.40;99.90
22418;DHT22;11376;50.932;4.442;2023-08-06T06:24:06;14.40;99.90
22418;DHT22;11376;50.932;4.442;2023-08-06T06:26:33;14.50;99.90
22418;DHT22;11376;50.932;4.442;2023-08-06T06:28:59;14.40;99.90
22418;DHT22;11376;50.932;4.442;2023-08-06T06:31:25;14.50;99.90
22418;DHT22;11376;50.932;4.442;2023-08-06T06:33:51;14.50;99.90
22418;DHT22;11376;50.932;4.442;2023-08-06T06:36:18;14.50;99.90
22418;DHT22;11376;50.932;4.442;2023-08-06T06:38:44;14.50;99.90
22418;DHT22;11376;50.932;4.442;2023-08-06T06:41:10;14.50;99.90
22418;DHT22;11376;50.932;4.442;2023-08-06T06:43:36;14.60;99.90
22418;DHT22;11376;50.932;4.442;2023-08-06T06:46:03;14.50;99.90
22418;DHT22;11376;50.932;4.442;2023-08-06T06:48:31;14.60;99.90
22418;DHT22;11376;50.932;4.442;2023-08-06T06:50:57;14.70;99.90
22418;DHT22;11376;50.932;4.442;2023-08-06T06:53:23;14.80;99.90
22418;DHT22;11376;50.932;4.442;2023-08-06T06:55:56;14.70;99.90
22418;DHT22;11376;50.932;4.442;2023-08-06T06:58:22;14.80;99.90
22418;DHT22;11376;50.932;4.442;2023-08-06T07:00:48;14.80;99.90
22418;DHT22;11376;50.932;4.442;2023-08-06T07:03:16;14.70;99.90
22418;DHT22;11376;50.932;4.442;2023-08-06T07:05:45;14.70;99.90
22418;DHT22;11376;50.932;4.442;2023-08-06T07:08:11;14.60;99.90
22418;DHT22;11376;50.932;4.442;2023-08-06T07:10:37;14.70;99.90
22418;DHT22;11376;50.932;4.442;2023-08-06T07:13:02;14.60;99.90
22418;DHT22;11376;50.932;4.442;2023-08-06T07:15:28;14.70;99.90
22418;DHT22;11376;50.932;4.442;2023-08-06T07:17:54;14.60;99.90
22418;DHT22;11376;50.932;4.442;2023-08-06T07:20:20;14.60;99.90
22418;DHT22;11376;50.932;4.442;2023-08-06T07:22:46;14.50;99.90
22418;DHT22;11376;50.932;4.442;2023-08-06T07:25:12;14.60;99.90
22418;DHT22;11376;50.932;4.442;2023-08-06T07:27:38;14.60;99.90
22418;DHT22;11376;50.932;4.442;2023-08-06T07:30:04;14.60;99.90
22418;DHT22;11376;50.932;4.442;2023-08-06T07:32:30;14.70;99.90
22418;DHT22;11376;50.932;4.442;2023-08-06T07:34:56;14.70;99.90
22418;DHT22;11376;50.932;4.442;2023-08-06T07:37:26;14.50;99.90
22418;DHT22;11376;50.932;4.442;2023-08-06T07:39:54;14.60;99.90
22418;DHT22;11376;50.932;4.442;2023-08-06T07:42:20;14.60;99.90
22418;DHT22;11376;50.932;4.442;2023-08-06T07:44:57;14.50;99.90
22418;DHT22;11376;50.932;4.442;2023-08-06T07:47:23;14.60;99.90
22418;DHT22;11376;50.932;4.442;2023-08-06T07:49:49;14.70;99.90
22418;DHT22;11376;50.932;4.442;2023-08-06T07:52:15;14.80;99.90
22418;DHT22;11376;50.932;4.442;2023-08-06T07:54:41;14.80;99.90
22418;DHT22;11376;50.932;4.442;2023-08-06T07:57:07;14.90;99.90
22418;DHT22;11376;50.932;4.442;2023-08-06T07:59:32;15.00;99.90
22418;DHT22;11376;50.932;4.442;2023-08-06T08:01:59;15.10;99.90
22418;DHT22;11376;50.932;4.442;2023-08-06T08:04:24;15.20;99.90
22418;DHT22;11376;50.932;4.442;2023-08-06T08:09:34;15.50;99.90
22418;DHT22;11376;50.932;4.442;2023-08-06T08:12:00;15.60;99.90
22418;DHT22;11376;50.932;4.442;2023-08-06T08:14:28;15.50;99.90
22418;DHT22;11376;50.932;4.442;2023-08-06T08:16:54;15.30;99.90
22418;DHT22;11376;50.932;4.442;2023-08-06T08:19:20;15.50;99.90
22418;DHT22;11376;50.932;4.442;2023-08-06T08:21:46;15.50;99.90
22418;DHT22;11376;50.932;4.442;2023-08-06T08:24:12;15.50;99.90
22418;DHT22;11376;50.932;4.442;2023-08-06T08:26:38;15.20;99.90
22418;DHT22;11376;50.932;4.442;2023-08-06T08:29:03;14.90;99.90
22418;DHT22;11376;50.932;4.442;2023-08-06T08:31:29;14.80;99.90
22418;DHT22;11376;50.932;4.442;2023-08-06T08:33:55;14.90;99.90
22418;DHT22;11376;50.932;4.442;2023-08-06T08:36:21;14.90;99.90
22418;DHT22;11376;50.932;4.442;2023-08-06T08:38:47;15.10;99.90
22418;DHT22;11376;50.932;4.442;2023-08-06T08:41:12;15.10;99.90
22418;DHT22;11376;50.932;4.442;2023-08-06T08:43:40;15.10;99.90
22418;DHT22;11376;50.932;4.442;2023-08-06T08:46:06;15.30;99.90
22418;DHT22;11376;50.932;4.442;2023-08-06T08:48:33;15.30;99.90
22418;DHT22;11376;50.932;4.442;2023-08-06T08:50:59;15.30;99.90
22418;DHT22;11376;50.932;4.442;2023-08-06T08:53:27;15.70;99.90
22418;DHT22;11376;50.932;4.442;2023-08-06T08:55:53;15.80;99.90
22418;DHT22;11376;50.932;4.442;2023-08-06T08:58:19;15.80;99.90
22418;DHT22;11376;50.932;4.442;2023-08-06T09:00:48;15.90;99.90
22418;DHT22;11376;50.932;4.442;2023-08-06T09:03:14;15.80;99.90
22418;DHT22;11376;50.932;4.442;2023-08-06T09:05:44;15.70;99.90
22418;DHT22;11376;50.932;4.442;2023-08-06T09:08:12;15.70;99.90
22418;DHT22;11376;50.932;4.442;2023-08-06T09:10:41;15.80;99.90
22418;DHT22;11376;50.932;4.442;2023-08-06T09:13:08;15.80;99.90
22418;DHT22;11376;50.932;4.442;2023-08-06T09:15:34;15.70;99.90
22418;DHT22;11376;50.932;4.442;2023-08-06T09:18:00;15.50;99.90
22418;DHT22;11376;50.932;4.442;2023-08-06T09:20:26;15.30;99.90
22418;DHT22;11376;50.932;4.442;2023-08-06T09:22:54;15.00;99.90
22418;DHT22;11376;50.932;4.442;2023-08-06T09:25:24;14.90;99.90
22418;DHT22;11376;50.932;4.442;2023-08-06T09:27:51;14.80;99.90
22418;DHT22;11376;50.932;4.442;2023-08-06T09:30:29;14.80;99.90
22418;DHT22;11376;50.932;4.442;2023-08-06T09:32:56;14.70;99.90
22418;DHT22;11376;50.932;4.442;2023-08-06T09:35:22;14.60;99.90
22418;DHT22;11376;50.932;4.442;2023-08-06T09:37:48;14.50;99.90
22418;DHT22;11376;50.932;4.442;2023-08-06T09:40:31;14.50;99.90
22418;DHT22;11376;50.932;4.442;2023-08-06T09:42:57;14.40;99.90
22418;DHT22;11376;50.932;4.442;2023-08-06T09:45:31;14.40;99.90
22418;DHT22;11376;50.932;4.442;2023-08-06T09:47:59;14.40;99.90
22418;DHT22;11376;50.932;4.442;2023-08-06T09:50:30;14.40;99.90
22418;DHT22;11376;50.932;4.442;2023-08-06T09:52:57;14.40;99.90
22418;DHT22;11376;50.932;4.442;2023-08-06T09:55:24;14.50;99.90
22418;DHT22;11376;50.932;4.442;2023-08-06T09:57:52;14.40;99.90
22418;DHT22;11376;50.932;4.442;2023-08-06T10:00:18;14.40;99.90
22418;DHT22;11376;50.932;4.442;2023-08-06T10:02:43;14.40;99.90
22418;DHT22;11376;50.932;4.442;2023-08-06T10:05:10;14.30;99.90
22418;DHT22;11376;50.932;4.442;2023-08-06T10:07:37;14.40;99.90
22418;DHT22;11376;50.932;4.442;2023-08-06T10:10:06;14.50;99.90
22418;DHT22;11376;50.932;4.442;2023-08-06T10:12:34;14.50;99.90
22418;DHT22;11376;50.932;4.442;2023-08-06T10:15:04;14.50;99.90
22418;DHT22;11376;50.932;4.442;2023-08-06T10:17:33;14.40;99.90
22418;DHT22;11376;50.932;4.442;2023-08-06T10:20:00;14.30;99.90
22418;DHT22;11376;50.932;4.442;2023-08-06T10:22:26;14.30;99.90
22418;DHT22;11376;50.932;4.442;2023-08-06T10:24:59;14.30;99.90
22418;DHT22;11376;50.932;4.442;2023-08-06T10:27:34;14.40;99.90
22418;DHT22;11376;50.932;4.442;2023-08-06T10:30:28;14.30;99.90
22418;DHT22;11376;50.932;4.442;2023-08-06T10:33:03;14.50;99.90
22418;DHT22;11376;50.932;4.442;2023-08-06T10:35:40;14.50;99.90
22418;DHT22;11376;50.932;4.442;2023-08-06T10:38:08;14.70;99.90
22418;DHT22;11376;50.932;4.442;2023-08-06T10:40:36;14.70;99.90
22418;DHT22;11376;50.932;4.442;2023-08-06T10:43:03;14.60;99.90
22418;DHT22;11376;50.932;4.442;2023-08-06T10:45:30;14.70;99.90
22418;DHT22;11376;50.932;4.442;2023-08-06T10:47:56;14.80;99.90
22418;DHT22;11376;50.932;4.442;2023-08-06T10:50:23;14.90;99.90
22418;DHT22;11376;50.932;4.442;2023-08-06T10:52:50;14.80;99.90
22418;DHT22;11376;50.932;4.442;2023-08-06T10:55:29;14.70;99.90
22418;DHT22;11376;50.932;4.442;2023-08-06T10:57:55;14.50;99.90
22418;DHT22;11376;50.932;4.442;2023-08-06T11:00:22;14.30;99.90
22418;DHT22;11376;50.932;4.442;2023-08-06T11:02:49;14.40;99.90
22418;DHT22;11376;50.932;4.442;2023-08-06T11:05:16;14.40;99.90
22418;DHT22;11376;50.932;4.442;2023-08-06T11:07:42;14.50;99.90
22418;DHT22;11376;50.932;4.442;2023-08-06T11:10:13;14.50;99.90
22418;DHT22;11376;50.932;4.442;2023-08-06T11:12:40;14.60;99.90
22418;DHT22;11376;50.932;4.442;2023-08-06T11:15:06;14.70;99.90
22418;DHT22;11376;50.932;4.442;2023-08-06T11:17:33;14.80;99.90
22418;DHT22;11376;50.932;4.442;2023-08-06T11:20:01;14.90;99.90
22418;DHT22;11376;50.932;4.442;2023-08-06T11:22:28;15.00;99.90
22418;DHT22;11376;50.932;4.442;2023-08-06T11:24:54;15.00;99.90
22418;DHT22;11376;50.932;4.442;2023-08-06T11:27:20;15.10;99.90
22418;DHT22;11376;50.932;4.442;2023-08-06T11:29:46;15.20;99.90
22418;DHT22;11376;50.932;4.442;2023-08-06T11:32:12;15.20;99.90
22418;DHT22;11376;50.932;4.442;2023-08-06T11:34:39;15.10;99.90
22418;DHT22;11376;50.932;4.442;2023-08-06T11:37:06;15.10;99.90
22418;DHT22;11376;50.932;4.442;2023-08-06T11:39:35;15.00;99.90
22418;DHT22;11376;50.932;4.442;2023-08-06T11:42:05;15.00;99.90
22418;DHT22;11376;50.932;4.442;2023-08-06T11:44:35;14.70;99.90
22418;DHT22;11376;50.932;4.442;2023-08-06T11:47:02;14.50;99.90
22418;DHT22;11376;50.932;4.442;2023-08-06T11:49:47;14.40;99.90
22418;DHT22;11376;50.932;4.442;2023-08-06T11:54:40;14.50;99.90
22418;DHT22;11376;50.932;4.442;2023-08-06T11:57:06;14.70;99.90
22418;DHT22;11376;50.932;4.442;2023-08-06T11:59:32;14.90;99.90
22418;DHT22;11376;50.932;4.442;2023-08-06T12:02:01;15.30;99.90
22418;DHT22;11376;50.932;4.442;2023-08-06T12:04:27;15.40;99.90
22418;DHT22;11376;50.932;4.442;2023-08-06T12:06:53;15.40;99.90
22418;DHT22;11376;50.932;4.442;2023-08-06T12:09:19;15.50;99.90
22418;DHT22;11376;50.932;4.442;2023-08-06T12:11:44;15.60;99.90
22418;DHT22;11376;50.932;4.442;2023-08-06T12:14:10;15.80;99.90
22418;DHT22;11376;50.932;4.442;2023-08-06T12:16:36;15.80;99.90
22418;DHT22;11376;50.932;4.442;2023-08-06T12:19:01;15.80;99.90
22418;DHT22;11376;50.932;4.442;2023-08-06T12:21:27;15.70;99.90
22418;DHT22;11376;50.932;4.442;2023-08-06T12:23:53;15.50;99.90
22418;DHT22;11376;50.932;4.442;2023-08-06T12:26:18;15.70;99.90
22418;DHT22;11376;50.932;4.442;2023-08-06T12:28:44;15.80;99.90
22418;DHT22;11376;50.932;4.442;2023-08-06T12:31:10;15.90;99.90
22418;DHT22;11376;50.932;4.442;2023-08-06T12:33:36;15.80;99.90
22418;DHT22;11376;50.932;4.442;2023-08-06T12:36:01;15.90;99.90
22418;DHT22;11376;50.932;4.442;2023-08-06T12:38:28;15.80;99.90
22418;DHT22;11376;50.932;4.442;2023-08-06T12:40:54;15.70;99.90
22418;DHT22;11376;50.932;4.442;2023-08-06T12:43:19;15.60;99.90
22418;DHT22;11376;50.932;4.442;2023-08-06T12:45:45;15.50;99.90
22418;DHT22;11376;50.932;4.442;2023-08-06T12:48:11;15.40;99.90
22418;DHT22;11376;50.932;4.442;2023-08-06T12:50:37;15.40;99.90
22418;DHT22;11376;50.932;4.442;2023-08-06T12:53:03;15.20;99.90
22418;DHT22;11376;50.932;4.442;2023-08-06T12:55:30;15.20;99.90
22418;DHT22;11376;50.932;4.442;2023-08-06T12:57:56;15.00;99.90
22418;DHT22;11376;50.932;4.442;2023-08-06T13:00:22;15.00;99.90
22418;DHT22;11376;50.932;4.442;2023-08-06T13:02:47;14.70;99.90
22418;DHT22;11376;50.932;4.442;2023-08-06T13:05:13;14.50;99.90
22418;DHT22;11376;50.932;4.442;2023-08-06T13:07:39;14.30;99.90
22418;DHT22;11376;50.932;4.442;2023-08-06T13:10:05;14.40;99.90
22418;DHT22;11376;50.932;4.442;2023-08-06T13:12:31;14.40;99.90
22418;DHT22;11376;50.932;4.442;2023-08-06T13:14:57;14.40;99.90
22418;DHT22;11376;50.932;4.442;2023-08-06T13:17:24;14.60;99.90
22418;DHT22;11376;50.932;4.442;2023-08-06T13:19:50;14.60;99.90
22418;DHT22;11376;50.932;4.442;2023-08-06T13:22:16;14.70;99.90
22418;DHT22;11376;50.932;4.442;2023-08-06T13:24:41;14.70;99.90
22418;DHT22;11376;50.932;4.442;2023-08-06T13:27:07;14.80;99.90
22418;DHT22;11376;50.932;4.442;2023-08-06T13:29:35;14.80;99.90
22418;DHT22;11376;50.932;4.442;2023-08-06T13:32:00;14.60;99.90
22418;DHT22;11376;50.932;4.442;2023-08-06T13:34:26;14.60;99.90
22418;DHT22;11376;50.932;4.442;2023-08-06T13:36:52;14.50;99.90
22418;DHT22;11376;50.932;4.442;2023-08-06T13:39:18;14.50;99.90
22418;DHT22;11376;50.932;4.442;2023-08-06T13:41:45;14.40;99.90
22418;DHT22;11376;50.932;4.442;2023-08-06T13:44:10;14.20;99.90
22418;DHT22;11376;50.932;4.442;2023-08-06T13:46:36;14.00;99.90
22418;DHT22;11376;50.932;4.442;2023-08-06T13:49:02;14.00;99.90
22418;DHT22;11376;50.932;4.442;2023-08-06T13:51:28;14.00;99.90
22418;DHT22;11376;50.932;4.442;2023-08-06T13:53:54;13.90;99.90
22418;DHT22;11376;50.932;4.442;2023-08-06T13:56:19;14.00;99.90
22418;DHT22;11376;50.932;4.442;2023-08-06T13:58:45;13.90;99.90
22418;DHT22;11376;50.932;4.442;2023-08-06T14:01:11;13.90;99.90
22418;DHT22;11376;50.932;4.442;2023-08-06T14:03:37;14.00;99.90
22418;DHT22;11376;50.932;4.442;2023-08-06T14:06:02;14.00;99.90
22418;DHT22;11376;50.932;4.442;2023-08-06T14:08:28;14.10;99.90
22418;DHT22;11376;50.932;4.442;2023-08-06T14:10:54;14.10;99.90
22418;DHT22;11376;50.932;4.442;2023-08-06T14:13:21;14.10;99.90
22418;DHT22;11376;50.932;4.442;2023-08-06T14:15:47;14.20;99.90
22418;DHT22;11376;50.932;4.442;2023-08-06T14:18:13;14.30;99.90
22418;DHT22;11376;50.932;4.442;2023-08-06T14:20:40;14.30;99.90
22418;DHT22;11376;50.932;4.442;2023-08-06T14:23:06;14.30;99.90
22418;DHT22;11376;50.932;4.442;2023-08-06T14:25:31;14.20;99.90
22418;DHT22;11376;50.932;4.442;2023-08-06T14:27:57;14.30;99.90
22418;DHT22;11376;50.932;4.442;2023-08-06T14:30:23;14.30;99.90
22418;DHT22;11376;50.932;4.442;2023-08-06T14:32:49;14.30;99.90
22418;DHT22;11376;50.932;4.442;2023-08-06T14:35:15;14.40;99.90
22418;DHT22;11376;50.932;4.442;2023-08-06T14:37:40;14.30;99.90
22418;DHT22;11376;50.932;4.442;2023-08-06T14:40:07;14.40;99.90
22418;DHT22;11376;50.932;4.442;2023-08-06T14:42:33;14.60;99.90
22418;DHT22;11376;50.932;4.442;2023-08-06T14:44:58;14.70;99.90
22418;DHT22;11376;50.932;4.442;2023-08-06T14:47:24;14.80;99.90
22418;DHT22;11376;50.932;4.442;2023-08-06T14:49:50;14.80;99.90
22418;DHT22;11376;50.932;4.442;2023-08-06T14:52:16;14.80;99.90
22418;DHT22;11376;50.932;4.442;2023-08-06T14:54:42;14.70;99.90
22418;DHT22;11376;50.932;4.442;2023-08-06T14:57:09;14.60;99.90
22418;DHT22;11376;50.932;4.442;2023-08-06T14:59:35;14.50;99.90
22418;DHT22;11376;50.932;4.442;2023-08-06T15:02:01;14.40;99.90
22418;DHT22;11376;50.932;4.442;2023-08-06T15:04:27;14.30;99.90
22418;DHT22;11376;50.932;4.442;2023-08-06T15:06:54;14.30;99.90
22418;DHT22;11376;50.932;4.442;2023-08-06T15:09:20;14.20;99.90
22418;DHT22;11376;50.932;4.442;2023-08-06T15:11:47;14.20;99.90
22418;DHT22;11376;50.932;4.442;2023-08-06T15:14:13;14.30;99.90
22418;DHT22;11376;50.932;4.442;2023-08-06T15:16:40;14.40;99.90
22418;DHT22;11376;50.932;4.442;2023-08-06T15:19:06;14.50;99.90
22418;DHT22;11376;50.932;4.442;2023-08-06T15:21:31;14.60;99.90
22418;DHT22;11376;50.932;4.442;2023-08-06T15:23:57;14.40;99.90
22418;DHT22;11376;50.932;4.442;2023-08-06T15:26:23;14.50;99.90
22418;DHT22;11376;50.932;4.442;2023-08-06T15:28:49;14.50;99.90
22418;DHT22;11376;50.932;4.442;2023-08-06T15:31:14;14.50;99.90
22418;DHT22;11376;50.932;4.442;2023-08-06T15:33:40;14.50;99.90
22418;DHT22;11376;50.932;4.442;2023-08-06T15:36:06;14.60;99.90